createdAt,value
2022-11-20T00:01:31.631Z,9.10
2022-11-20T00:03:59.166Z,9.02
2022-11-20T00:06:27.662Z,9.15
2022-11-20T00:08:59.336Z,8.10
2022-11-20T00:11:28.004Z,8.32
2022-11-20T00:13:58.229Z,8.73
2022-11-20T00:16:27.070Z,8.82
2022-11-20T00:18:55.194Z,8.43
2022-11-20T00:21:25.478Z,8.03
2022-11-20T00:23:55.309Z,8.48
2022-11-20T00:26:24.110Z,8.35
2022-11-20T00:28:53.489Z,9.38
2022-11-20T00:31:20.670Z,9.50
2022-11-20T00:33:47.867Z,10.13
2022-11-20T00:36:17.727Z,9.30
2022-11-20T00:38:46.378Z,9.20
2022-11-20T00:41:15.853Z,8.95
2022-11-20T00:43:42.867Z,9.70
2022-11-20T00:46:22.310Z,9.23
2022-11-20T00:48:49.448Z,8.68
2022-11-20T00:51:19.943Z,9.70
2022-11-20T00:53:47.543Z,8.85
2022-11-20T00:56:17.733Z,9.13
2022-11-20T00:58:47.055Z,10.07
2022-11-20T01:01:19.961Z,8.75
2022-11-20T01:03:51.803Z,10.07
2022-11-20T01:06:40.139Z,10.23
2022-11-20T01:09:11.789Z,9.70
2022-11-20T01:11:42.082Z,10.03
2022-11-20T01:14:17.146Z,9.95
2022-11-20T01:16:46.920Z,9.85
2022-11-20T01:19:18.187Z,10.27
2022-11-20T01:21:47.329Z,9.23
2022-11-20T01:24:15.679Z,9.47
2022-11-20T01:26:44.071Z,9.52
2022-11-20T01:29:21.353Z,8.90
2022-11-20T01:31:48.509Z,9.07
2022-11-20T01:34:18.520Z,8.45
2022-11-20T01:36:45.944Z,9.57
2022-11-20T01:39:17.184Z,9.43
2022-11-20T01:42:09.374Z,9.80
2022-11-20T01:44:57.689Z,8.43
2022-11-20T01:47:39.870Z,9.23
2022-11-20T01:50:22.870Z,9.00
2022-11-20T01:52:55.966Z,9.27
2022-11-20T01:55:29.197Z,9.15
2022-11-20T01:57:56.686Z,9.05
2022-11-20T02:00:23.468Z,9.20
2022-11-20T02:02:58.269Z,9.03
2022-11-20T02:05:44.552Z,8.10
2022-11-20T02:08:12.824Z,9.45
2022-11-20T02:10:39.588Z,9.25
2022-11-20T02:13:25.344Z,9.20
2022-11-20T02:15:52.906Z,10.27
2022-11-20T02:18:21.084Z,8.63
2022-11-20T02:20:51.140Z,9.82
2022-11-20T02:23:48.786Z,9.52
2022-11-20T02:26:18.004Z,9.98
2022-11-20T02:28:45.068Z,8.70
2022-11-20T02:31:11.959Z,9.30
2022-11-20T02:33:39.243Z,9.77
2022-11-20T02:36:06.568Z,9.45
2022-11-20T02:38:33.523Z,8.82
2022-11-20T02:41:00.316Z,9.40
2022-11-20T02:43:27.119Z,8.68
2022-11-20T02:45:53.923Z,9.98
2022-11-20T02:48:20.736Z,9.38
2022-11-20T02:50:48.195Z,9.10
2022-11-20T02:53:14.928Z,9.30
2022-11-20T02:55:41.852Z,8.90
2022-11-20T02:58:08.690Z,8.77
2022-11-20T03:00:36.512Z,9.88
2022-11-20T03:03:03.395Z,10.65
2022-11-20T03:05:30.162Z,9.20
2022-11-20T03:07:56.927Z,9.48
2022-11-20T03:10:23.912Z,9.13
2022-11-20T03:12:56.868Z,9.70
2022-11-20T03:15:24.645Z,9.75
2022-11-20T03:17:55.744Z,8.93
2022-11-20T03:20:23.211Z,9.15
2022-11-20T03:22:50.107Z,8.75
2022-11-20T03:25:17.000Z,9.73
2022-11-20T03:27:43.779Z,9.45
2022-11-20T03:30:11.049Z,9.87
2022-11-20T03:32:37.873Z,9.55
2022-11-20T03:35:05.037Z,9.52
2022-11-20T03:37:32.824Z,9.10
2022-11-20T03:39:59.724Z,9.57
2022-11-20T03:42:45.205Z,9.30
2022-11-20T03:45:12.755Z,9.38
2022-11-20T03:47:39.970Z,8.77
2022-11-20T03:50:07.252Z,8.75
2022-11-20T03:52:34.016Z,8.75
2022-11-20T03:55:00.843Z,9.07
2022-11-20T03:57:27.592Z,8.90
2022-11-20T03:59:54.314Z,9.52
2022-11-20T04:02:21.150Z,10.35
2022-11-20T04:04:47.879Z,10.82
2022-11-20T04:07:14.717Z,11.10
2022-11-20T04:09:41.592Z,10.35
2022-11-20T04:12:08.406Z,9.02
2022-11-20T04:14:35.134Z,10.32
2022-11-20T04:17:01.989Z,9.38
2022-11-20T04:19:28.860Z,8.93
2022-11-20T04:21:55.629Z,9.77
2022-11-20T04:24:22.415Z,9.10
2022-11-20T04:26:49.190Z,9.30
2022-11-20T04:29:16.272Z,9.43
2022-11-20T04:31:43.085Z,10.00
2022-11-20T04:34:12.819Z,9.82
2022-11-20T04:36:39.686Z,9.05
2022-11-20T04:39:07.474Z,9.77
2022-11-20T04:41:36.481Z,9.73
2022-11-20T04:44:05.306Z,9.77
2022-11-20T04:46:35.484Z,10.43
2022-11-20T04:49:02.433Z,10.00
2022-11-20T04:51:29.429Z,9.55
2022-11-20T04:53:56.445Z,9.43
2022-11-20T04:56:23.510Z,10.23
2022-11-20T04:58:51.006Z,9.18
2022-11-20T05:01:20.379Z,9.73
2022-11-20T05:03:47.354Z,9.75
2022-11-20T05:06:16.383Z,9.45
2022-11-20T05:08:43.703Z,9.60
2022-11-20T05:11:13.471Z,9.10
2022-11-20T05:13:40.852Z,9.55
2022-11-20T05:16:10.933Z,9.05
2022-11-20T05:18:38.794Z,9.25
2022-11-20T05:21:06.587Z,10.17
2022-11-20T05:23:34.323Z,10.25
2022-11-20T05:26:01.954Z,9.60
2022-11-20T05:28:30.282Z,9.60
2022-11-20T05:30:57.129Z,9.10
2022-11-20T05:33:23.954Z,9.63
2022-11-20T05:35:50.987Z,8.90
2022-11-20T05:38:17.760Z,9.32
2022-11-20T05:40:44.654Z,10.13
2022-11-20T05:43:11.430Z,10.02
2022-11-20T05:45:38.279Z,8.93
2022-11-20T05:48:05.283Z,9.55
2022-11-20T05:50:32.117Z,9.23
2022-11-20T05:53:00.600Z,8.45
2022-11-20T05:55:28.278Z,8.82
2022-11-20T05:57:56.168Z,8.53
2022-11-20T06:00:23.363Z,8.70
2022-11-20T06:02:50.256Z,8.93
2022-11-20T06:05:17.323Z,7.93
2022-11-20T06:07:44.338Z,8.65
2022-11-20T06:10:11.440Z,10.00
2022-11-20T06:12:38.260Z,9.55
2022-11-20T06:15:06.649Z,8.93
2022-11-20T06:17:33.381Z,8.70
2022-11-20T06:20:00.360Z,8.35
2022-11-20T06:22:27.167Z,9.60
2022-11-20T06:24:53.949Z,8.57
2022-11-20T06:27:20.804Z,8.63
2022-11-20T06:29:47.593Z,8.35
2022-11-20T06:32:14.473Z,7.93
2022-11-20T06:34:41.284Z,7.70
2022-11-20T06:37:08.094Z,8.98
2022-11-20T06:39:34.891Z,9.35
2022-11-20T06:42:01.643Z,8.15
2022-11-20T06:44:28.417Z,7.87
2022-11-20T06:46:55.259Z,8.93
2022-11-20T06:49:22.358Z,8.55
2022-11-20T06:51:49.296Z,7.90
2022-11-20T06:54:16.118Z,7.87
2022-11-20T06:56:42.921Z,8.75
2022-11-20T06:59:09.917Z,8.47
2022-11-20T07:01:37.258Z,8.40
2022-11-20T07:04:04.298Z,7.12
2022-11-20T07:06:31.270Z,7.60
2022-11-20T07:08:58.547Z,7.55
2022-11-20T07:11:25.430Z,7.93
2022-11-20T07:13:52.221Z,6.68
2022-11-20T07:16:19.300Z,7.00
2022-11-20T07:18:50.466Z,7.68
2022-11-20T07:21:18.311Z,8.30
2022-11-20T07:23:45.158Z,6.60
2022-11-20T07:26:12.229Z,7.40
2022-11-20T07:28:39.453Z,7.40
2022-11-20T07:31:14.620Z,7.47
2022-11-20T07:33:44.436Z,6.82
2022-11-20T07:36:11.403Z,7.70
2022-11-20T07:38:38.977Z,7.00
2022-11-20T07:41:05.979Z,7.25
2022-11-20T07:43:35.874Z,6.90
2022-11-20T07:46:06.673Z,7.18
2022-11-20T07:48:33.513Z,7.63
2022-11-20T07:51:00.425Z,7.78
2022-11-20T07:53:27.305Z,6.90
2022-11-20T07:55:54.234Z,8.10
2022-11-20T07:58:22.489Z,7.35
2022-11-20T08:00:49.754Z,6.67
2022-11-20T08:03:21.636Z,6.82
2022-11-20T08:05:51.332Z,7.25
2022-11-20T08:08:18.433Z,7.97
2022-11-20T08:10:45.265Z,7.15
2022-11-20T08:13:30.778Z,6.90
2022-11-20T08:15:57.605Z,7.32
2022-11-20T08:18:31.166Z,7.90
2022-11-20T08:20:59.274Z,7.75
2022-11-20T08:23:26.116Z,8.20
2022-11-20T08:25:52.915Z,7.37
2022-11-20T08:28:22.296Z,6.82
2022-11-20T08:30:51.251Z,7.35
2022-11-20T08:33:19.290Z,7.53
2022-11-20T08:35:46.499Z,7.22
2022-11-20T08:38:13.273Z,6.80
2022-11-20T08:40:40.021Z,7.35
2022-11-20T08:43:06.853Z,7.25
2022-11-20T08:45:34.955Z,7.40
2022-11-20T08:48:04.230Z,7.03
2022-11-20T08:50:33.326Z,7.57
2022-11-20T08:53:05.498Z,6.22
2022-11-20T08:55:32.607Z,7.45
2022-11-20T08:57:59.516Z,7.53
2022-11-20T09:00:27.138Z,7.72
2022-11-20T09:02:54.062Z,7.33
2022-11-20T09:05:20.910Z,7.18
2022-11-20T09:07:47.745Z,9.13
2022-11-20T09:10:24.018Z,10.13
2022-11-20T09:12:52.953Z,9.30
2022-11-20T09:15:20.338Z,9.00
2022-11-20T09:17:57.824Z,7.07
2022-11-20T09:20:25.449Z,7.45
2022-11-20T09:22:52.711Z,7.57
2022-11-20T09:25:21.589Z,7.25
2022-11-20T09:27:48.816Z,8.00
2022-11-20T09:30:16.609Z,7.25
2022-11-20T09:32:43.895Z,7.35
2022-11-20T09:35:11.928Z,7.62
2022-11-20T09:37:39.187Z,7.45
2022-11-20T09:40:06.641Z,8.00
2022-11-20T09:42:48.649Z,8.27
2022-11-20T09:45:24.523Z,8.05
2022-11-20T09:48:16.881Z,8.15
2022-11-20T09:50:48.815Z,7.53
2022-11-20T09:53:35.080Z,7.90
2022-11-20T09:56:04.383Z,8.20
2022-11-20T09:58:41.508Z,6.82
2022-11-20T10:01:15.599Z,8.38
2022-11-20T10:03:52.743Z,8.63
2022-11-20T10:06:25.282Z,7.37
2022-11-20T10:09:20.067Z,6.93
2022-11-20T10:12:29.426Z,7.60
2022-11-20T10:15:05.137Z,6.90
2022-11-20T10:17:56.536Z,7.37
2022-11-20T10:20:47.704Z,7.23
2022-11-20T10:23:29.468Z,7.53
2022-11-20T10:26:03.976Z,7.15
2022-11-20T10:29:00.661Z,7.57
2022-11-20T10:31:42.466Z,7.25
2022-11-20T10:34:25.289Z,7.17
2022-11-20T10:37:04.818Z,6.97
2022-11-20T10:39:42.411Z,7.45
2022-11-20T10:42:18.329Z,7.20
2022-11-20T10:45:05.736Z,6.82
2022-11-20T10:47:33.922Z,6.57
2022-11-20T10:50:10.750Z,6.68
2022-11-20T10:52:56.018Z,6.95
2022-11-20T10:55:33.960Z,7.28
2022-11-20T10:58:08.169Z,6.45
2022-11-20T11:00:35.034Z,6.43
2022-11-20T11:03:04.020Z,6.53
2022-11-20T11:05:40.540Z,6.93
2022-11-20T11:08:14.784Z,7.35
2022-11-20T11:11:20.347Z,6.70
2022-11-20T11:13:47.173Z,6.90
2022-11-20T11:16:28.078Z,6.72
2022-11-20T11:19:13.290Z,7.03
2022-11-20T11:21:53.841Z,6.95
2022-11-20T11:24:46.000Z,7.03
2022-11-20T11:27:19.136Z,6.93
2022-11-20T11:29:47.140Z,7.50
2022-11-20T11:32:15.408Z,7.57
2022-11-20T11:34:42.645Z,7.03
2022-11-20T11:37:18.584Z,6.85
2022-11-20T11:39:49.397Z,7.00
2022-11-20T11:42:22.125Z,7.50
2022-11-20T11:45:07.803Z,7.47
2022-11-20T11:47:46.470Z,6.55
2022-11-20T11:50:13.248Z,6.72
2022-11-20T11:52:52.381Z,7.70
2022-11-20T11:55:34.347Z,7.97
2022-11-20T11:58:26.410Z,7.50
2022-11-20T12:01:04.391Z,8.00
2022-11-20T12:03:44.382Z,8.02
2022-11-20T12:06:15.184Z,8.17
2022-11-20T12:09:00.726Z,7.57
2022-11-20T12:11:38.952Z,8.25
2022-11-20T12:14:30.798Z,8.70
2022-11-20T12:16:58.683Z,8.35
2022-11-20T12:19:26.099Z,8.63
2022-11-20T12:22:01.898Z,8.52
2022-11-20T12:24:30.096Z,7.80
2022-11-20T12:27:15.456Z,7.50
2022-11-20T12:30:14.752Z,7.50
2022-11-20T12:32:45.187Z,8.03
2022-11-20T12:35:30.607Z,6.97
2022-11-20T12:38:09.613Z,7.60
2022-11-20T12:40:54.867Z,7.68
2022-11-20T12:43:51.410Z,6.97
2022-11-20T12:46:27.332Z,7.73
2022-11-20T12:49:01.242Z,8.77
2022-11-20T12:51:35.165Z,8.60
2022-11-20T12:54:07.877Z,7.65
2022-11-20T12:56:47.062Z,8.57
2022-11-20T12:59:32.639Z,9.97
2022-11-20T13:02:33.269Z,8.05
2022-11-20T13:05:22.770Z,7.57
2022-11-20T13:07:53.181Z,8.48
2022-11-20T13:10:28.830Z,7.82
2022-11-20T13:13:06.726Z,7.80
2022-11-20T13:15:44.563Z,7.72
2022-11-20T13:18:13.514Z,7.93
2022-11-20T13:20:48.038Z,8.65
2022-11-20T13:23:28.656Z,8.25
2022-11-20T13:26:18.708Z,7.57
2022-11-20T13:28:50.651Z,8.05
2022-11-20T13:31:31.897Z,8.00
2022-11-20T13:34:01.161Z,7.80
2022-11-20T13:36:31.695Z,8.13
2022-11-20T13:38:59.156Z,7.67
2022-11-20T13:41:36.530Z,7.57
2022-11-20T13:44:25.044Z,7.93
2022-11-20T13:46:52.669Z,23.85
2022-11-20T13:49:29.012Z,21.27
2022-11-20T13:52:20.405Z,12.10
2022-11-20T13:54:56.384Z,9.68
2022-11-20T13:57:33.874Z,8.95
2022-11-20T14:00:14.765Z,9.07
2022-11-20T14:02:43.891Z,10.02
2022-11-20T14:05:24.709Z,10.33
2022-11-20T14:07:54.149Z,9.95
2022-11-20T14:10:31.285Z,10.35
2022-11-20T14:12:59.189Z,10.35
2022-11-20T14:15:29.079Z,10.02
2022-11-20T14:17:56.474Z,9.83
2022-11-20T14:20:28.606Z,8.63
2022-11-20T14:22:56.557Z,9.70
2022-11-20T14:25:28.377Z,9.80
2022-11-20T14:27:58.669Z,9.02
2022-11-20T14:30:29.058Z,9.30
2022-11-20T14:33:01.274Z,9.73
2022-11-20T14:35:35.691Z,10.48
2022-11-20T14:38:03.765Z,9.95
2022-11-20T14:40:39.818Z,9.40
2022-11-20T14:43:38.987Z,9.90
2022-11-20T14:46:13.387Z,10.27
2022-11-20T14:48:44.382Z,10.20
2022-11-20T14:51:13.447Z,9.65
2022-11-20T14:53:40.618Z,9.90
2022-11-20T14:56:09.446Z,10.37
2022-11-20T14:58:36.444Z,10.25
2022-11-20T15:01:06.731Z,10.60
2022-11-20T15:03:39.360Z,11.55
2022-11-20T15:06:12.542Z,11.35
2022-11-20T15:08:39.800Z,11.03
2022-11-20T15:11:24.967Z,10.52
2022-11-20T15:13:52.112Z,10.45
2022-11-20T15:16:22.099Z,11.68
2022-11-20T15:18:49.600Z,11.50
2022-11-20T15:21:19.275Z,12.00
2022-11-20T15:23:46.539Z,11.00
2022-11-20T15:26:20.025Z,12.07
2022-11-20T15:28:51.465Z,14.13
2022-11-20T15:31:21.390Z,17.02
2022-11-20T15:33:49.224Z,18.67
2022-11-20T15:36:16.698Z,18.35
2022-11-20T15:38:43.949Z,16.35
2022-11-20T15:41:13.877Z,14.63
2022-11-20T15:43:40.818Z,15.40
2022-11-20T15:46:13.113Z,16.67
2022-11-20T15:48:48.558Z,36.88
2022-11-20T15:51:26.781Z,22.83
2022-11-20T15:53:54.155Z,17.15
2022-11-20T15:56:21.833Z,18.15
2022-11-20T15:58:49.164Z,18.77
2022-11-20T16:01:19.768Z,19.15
2022-11-20T16:03:47.709Z,17.87
2022-11-20T16:06:15.068Z,20.05
2022-11-20T16:08:42.623Z,15.48
2022-11-20T16:11:14.073Z,15.23
2022-11-20T16:13:59.729Z,15.52
2022-11-20T16:16:31.567Z,15.88
2022-11-20T16:18:59.377Z,14.43
2022-11-20T16:21:32.567Z,17.00
2022-11-20T16:24:01.370Z,17.73
2022-11-20T16:26:28.930Z,18.27
2022-11-20T16:28:57.166Z,20.00
2022-11-20T16:31:24.598Z,18.20
2022-11-20T16:33:59.681Z,16.55
2022-11-20T16:36:28.928Z,16.37
2022-11-20T16:38:59.317Z,16.27
2022-11-20T16:41:28.430Z,16.77
2022-11-20T16:44:03.653Z,16.40
2022-11-20T16:46:32.830Z,16.65
2022-11-20T16:49:01.042Z,17.93
2022-11-20T16:51:29.916Z,17.08
2022-11-20T16:53:57.263Z,16.08
2022-11-20T16:56:27.154Z,15.80
2022-11-20T16:58:56.928Z,17.67
2022-11-20T17:01:25.555Z,18.93
2022-11-20T17:04:04.832Z,19.12
2022-11-20T17:06:34.872Z,18.00
2022-11-20T17:09:02.656Z,19.70
2022-11-20T17:11:30.241Z,17.87
2022-11-20T17:14:00.900Z,17.40
2022-11-20T17:16:28.589Z,18.23
2022-11-20T17:19:02.815Z,17.42
2022-11-20T17:21:36.471Z,17.65
2022-11-20T17:24:05.992Z,17.67
2022-11-20T17:26:34.377Z,19.20
2022-11-20T17:29:07.756Z,17.37
2022-11-20T17:31:36.154Z,17.80
2022-11-20T17:34:03.620Z,17.65
2022-11-20T17:36:31.362Z,18.17
2022-11-20T17:38:59.466Z,21.80
2022-11-20T17:41:28.422Z,19.73
2022-11-20T17:44:00.770Z,32.33
2022-11-20T17:46:30.847Z,38.90
2022-11-20T17:48:58.270Z,55.88
2022-11-20T17:51:27.844Z,36.53
2022-11-20T17:54:04.011Z,34.25
2022-11-20T17:56:54.501Z,30.15
2022-11-20T17:59:22.696Z,26.25
2022-11-20T18:01:49.667Z,30.67
2022-11-20T18:04:17.516Z,32.20
2022-11-20T18:06:45.125Z,29.65
2022-11-20T18:09:13.045Z,33.05
2022-11-20T18:11:42.438Z,39.42
2022-11-20T18:14:29.647Z,28.73
2022-11-20T18:17:06.303Z,34.97
2022-11-20T18:19:44.695Z,28.73
2022-11-20T18:22:20.286Z,33.50
2022-11-20T18:24:47.634Z,41.13
2022-11-20T18:27:21.885Z,41.70
2022-11-20T18:29:52.339Z,40.30
2022-11-20T18:32:21.825Z,38.40
2022-11-20T18:34:49.363Z,38.80
2022-11-20T18:37:17.144Z,36.67
2022-11-20T18:39:44.823Z,36.45
2022-11-20T18:42:35.545Z,32.93
2022-11-20T18:45:05.533Z,34.60
2022-11-20T18:47:38.073Z,35.70
2022-11-20T18:50:07.139Z,36.92
2022-11-20T18:52:40.570Z,33.97
2022-11-20T18:55:08.679Z,33.37
2022-11-20T18:57:36.212Z,33.75
2022-11-20T19:02:55.156Z,30.00
2022-11-20T19:05:22.869Z,31.80
2022-11-20T19:07:50.545Z,32.17
2022-11-20T19:10:21.210Z,37.72
2022-11-20T19:12:49.277Z,39.53
2022-11-20T19:15:16.833Z,34.38
2022-11-20T19:17:44.357Z,32.05
2022-11-20T19:20:12.074Z,34.70
2022-11-20T19:22:39.511Z,34.35
2022-11-20T19:25:07.410Z,32.42
2022-11-20T19:27:34.876Z,31.73
2022-11-20T19:30:04.216Z,31.15
2022-11-20T19:32:31.228Z,32.73
2022-11-20T19:34:58.505Z,29.20
2022-11-20T19:37:25.850Z,30.12
2022-11-20T19:39:53.191Z,27.98
2022-11-20T19:42:20.104Z,27.73
2022-11-20T19:44:47.042Z,29.17
2022-11-20T19:47:14.862Z,28.15
2022-11-20T19:49:42.596Z,31.02
2022-11-20T19:52:10.599Z,31.95
2022-11-20T19:54:38.091Z,29.00
2022-11-20T19:57:05.306Z,33.20
2022-11-20T19:59:32.174Z,33.40
2022-11-20T20:01:59.051Z,35.05
2022-11-20T20:04:26.649Z,35.97
2022-11-20T20:06:54.094Z,35.53
2022-11-20T20:09:24.056Z,37.03
2022-11-20T20:11:51.517Z,33.75
2022-11-20T20:14:18.978Z,33.95
2022-11-20T20:16:46.064Z,32.83
2022-11-20T20:19:15.857Z,33.70
2022-11-20T20:21:43.949Z,33.80
2022-11-20T20:24:13.057Z,33.25
2022-11-20T20:26:42.695Z,33.83
2022-11-20T20:29:10.608Z,32.70
2022-11-20T20:31:37.973Z,32.55
2022-11-20T20:34:06.041Z,31.57
2022-11-20T20:36:33.307Z,32.17
2022-11-20T20:39:00.569Z,33.00
2022-11-20T20:41:27.900Z,33.53
2022-11-20T20:44:14.247Z,31.58
2022-11-20T20:46:42.064Z,32.93
2022-11-20T20:49:09.823Z,32.50
2022-11-20T20:51:36.780Z,33.97
2022-11-20T20:54:05.104Z,32.50
2022-11-20T20:56:35.326Z,30.05
2022-11-20T20:59:04.083Z,32.27
2022-11-20T21:01:32.587Z,29.45
2022-11-20T21:04:00.059Z,31.20
2022-11-20T21:06:27.070Z,30.17
2022-11-20T21:08:55.994Z,32.42
2022-11-20T21:11:23.116Z,31.30
2022-11-20T21:13:51.302Z,28.98
2022-11-20T21:16:21.154Z,27.42
2022-11-20T21:18:48.593Z,28.38
2022-11-20T21:21:35.118Z,28.98
2022-11-20T21:24:02.929Z,27.87
2022-11-20T21:26:29.848Z,23.52
2022-11-20T21:28:57.861Z,24.20
2022-11-20T21:31:27.072Z,24.25
2022-11-20T21:33:55.600Z,25.58
2022-11-20T21:36:28.554Z,25.07
2022-11-20T21:38:57.012Z,26.05
2022-11-20T21:41:26.644Z,22.13
2022-11-20T21:46:45.700Z,23.65
2022-11-20T21:49:13.284Z,23.00
2022-11-20T21:51:40.692Z,23.02
2022-11-20T21:54:07.583Z,24.52
2022-11-20T21:56:34.495Z,22.77
2022-11-20T21:59:01.396Z,21.48
2022-11-20T22:01:30.185Z,20.13
2022-11-20T22:03:59.267Z,20.08
2022-11-20T22:06:29.635Z,19.52
2022-11-20T22:08:56.884Z,18.10
2022-11-20T22:11:24.082Z,21.92
2022-11-20T22:14:09.590Z,23.97
2022-11-20T22:16:38.002Z,20.67
2022-11-20T22:19:20.590Z,19.40
2022-11-20T22:21:48.103Z,24.15
2022-11-20T22:24:17.205Z,32.83
2022-11-20T22:26:44.255Z,34.77
2022-11-20T22:29:17.042Z,24.73
2022-11-20T22:31:44.129Z,21.35
2022-11-20T22:34:13.168Z,19.92
2022-11-20T22:36:40.590Z,21.52
2022-11-20T22:39:07.742Z,21.57
2022-11-20T22:41:34.937Z,22.30
2022-11-20T22:44:04.821Z,19.90
2022-11-20T22:46:33.986Z,21.10
2022-11-20T22:49:03.033Z,21.77
2022-11-20T22:51:32.841Z,23.97
2022-11-20T22:54:00.245Z,21.95
2022-11-20T22:56:27.179Z,21.33
2022-11-20T22:58:54.331Z,18.50
2022-11-20T23:01:26.407Z,19.12
2022-11-20T23:04:01.469Z,19.50
2022-11-20T23:06:29.093Z,19.60
2022-11-20T23:08:57.043Z,19.40
2022-11-20T23:11:26.881Z,19.83
2022-11-20T23:14:02.830Z,20.62
2022-11-20T23:16:31.401Z,17.67
2022-11-20T23:19:01.301Z,18.98
2022-11-20T23:21:28.712Z,19.20
2022-11-20T23:23:57.288Z,19.37
2022-11-20T23:26:28.437Z,21.42
2022-11-20T23:28:57.855Z,22.33
2022-11-20T23:31:27.049Z,21.02
2022-11-20T23:33:55.935Z,21.70
2022-11-20T23:36:23.344Z,21.15
2022-11-20T23:38:50.519Z,24.17
2022-11-20T23:41:17.622Z,21.47
2022-11-20T23:43:44.468Z,22.98
2022-11-20T23:46:15.123Z,23.15
2022-11-20T23:48:45.069Z,22.85
2022-11-20T23:51:13.116Z,22.62
2022-11-20T23:53:40.057Z,19.83
2022-11-20T23:56:06.995Z,20.48
2022-11-20T23:58:36.758Z,20.52
